Time;durP1;ratioP1;P1;durP2;ratioP2;P2;SDS_P1;SDS_P2;PMS_P1;PMS_P2;Temp;Humidity;BMP_temperature;BMP_pressure;BME280_temperature;BME280_humidity;BME280_pressure;Samples;Min_cycle;Max_cycle;Signal;HPM_P1;HPM_P2
2022/01/12 00:02:18;;;;;;;64.20;28.60;;;;;;;;;;4932575;28;20127;-75
2022/01/12 00:04:43;;;;;;;54.78;25.48;;;;;;;;;;4930126;29;20036;-73
2022/01/12 00:07:09;;;;;;;37.63;21.02;;;;;;;;;;4938257;29;20039;-74
2022/01/12 00:09:34;;;;;;;33.42;18.05;;;;;;;;;;4928604;29;20992;-74
2022/01/12 00:12:00;;;;;;;34.33;18.73;;;;;;;;;;4925083;29;20039;-73
2022/01/12 00:14:27;;;;;;;37.05;19.10;;;;;;;;;;4925441;29;20035;-73
2022/01/12 00:16:58;;;;;;;34.85;18.17;;;;;;;;;;4922435;29;20050;-73
2022/01/12 00:19:24;;;;;;;42.87;21.60;;;;;;;;;;4942451;29;20420;-73
2022/01/12 00:21:50;;;;;;;33.53;18.73;;;;;;;;;;4940743;29;20449;-73
2022/01/12 00:24:16;;;;;;;32.25;19.13;;;;;;;;;;4922856;29;20042;-73
2022/01/12 00:33:07;;;;;;;30.10;17.17;;;;;;;;;;4940119;28;20516;-73
2022/01/12 00:35:15;;;;;;;37.95;17.95;;;;;;;;;;4888569;29;20035;-74
2022/01/12 00:37:40;;;;;;;34.58;18.48;;;;;;;;;;4865674;29;20156;-73
2022/01/12 00:40:07;;;;;;;35.35;20.67;;;;;;;;;;4906803;29;20067;-74
2022/01/12 00:42:32;;;;;;;42.28;19.85;;;;;;;;;;4941028;29;20588;-73
2022/01/12 00:45:01;;;;;;;34.38;18.67;;;;;;;;;;4915966;29;20083;-73
2022/01/12 00:47:26;;;;;;;41.55;21.15;;;;;;;;;;4942728;28;20093;-73
2022/01/12 00:49:52;;;;;;;41.83;22.42;;;;;;;;;;4931514;29;20027;-73
2022/01/12 00:52:17;;;;;;;35.30;19.50;;;;;;;;;;4928170;29;20039;-73
2022/01/12 00:54:42;;;;;;;45.70;22.63;;;;;;;;;;4935465;29;20144;-74
2022/01/12 00:57:08;;;;;;;45.00;21.80;;;;;;;;;;4940525;28;20159;-75
2022/01/12 00:59:33;;;;;;;37.88;19.63;;;;;;;;;;4946232;28;20086;-73
2022/01/12 01:01:59;;;;;;;36.78;19.58;;;;;;;;;;4924761;29;20164;-74
2022/01/12 01:04:25;;;;;;;38.03;20.88;;;;;;;;;;4942934;29;20110;-73
2022/01/12 01:06:54;;;;;;;40.65;20.25;;;;;;;;;;4929875;28;20043;-73
2022/01/12 01:09:23;;;;;;;38.10;19.35;;;;;;;;;;4960016;28;20085;-73
2022/01/12 01:11:50;;;;;;;32.78;17.73;;;;;;;;;;4928514;29;20113;-73
2022/01/12 01:14:23;;;;;;;31.67;18.02;;;;;;;;;;4944142;29;20488;-74
2022/01/12 01:27:51;;;;;;;30.30;17.58;;;;;;;;;;4936626;29;20050;-73
2022/01/12 01:30:17;;;;;;;33.85;17.60;;;;;;;;;;4935227;28;20047;-73
2022/01/12 01:32:44;;;;;;;34.72;17.52;;;;;;;;;;4932307;29;20776;-72
2022/01/12 01:35:11;;;;;;;34.47;19.23;;;;;;;;;;4959144;28;20083;-74
2022/01/12 01:37:40;;;;;;;37.00;19.92;;;;;;;;;;4943174;29;20424;-74
2022/01/12 01:40:11;;;;;;;33.90;18.13;;;;;;;;;;4925018;29;20154;-73
2022/01/12 01:43:09;;;;;;;34.88;18.90;;;;;;;;;;4943137;28;20093;-73
2022/01/12 01:53:45;;;;;;;38.83;21.58;;;;;;;;;;4951167;28;20039;-73
2022/01/12 01:56:11;;;;;;;42.67;21.15;;;;;;;;;;4956706;28;20039;-73
2022/01/12 01:58:37;;;;;;;48.55;23.05;;;;;;;;;;4926354;29;20077;-72
2022/01/12 02:01:04;;;;;;;53.10;24.48;;;;;;;;;;4941289;29;20031;-74
2022/01/12 02:03:34;;;;;;;48.20;21.50;;;;;;;;;;4926675;28;20047;-72
2022/01/12 02:06:07;;;;;;;43.33;21.65;;;;;;;;;;4958665;28;20035;-73
2022/01/12 02:08:33;;;;;;;50.50;23.40;;;;;;;;;;4942794;29;20046;-73
2022/01/12 02:11:27;;;;;;;38.03;20.80;;;;;;;;;;4926013;29;20047;-72
2022/01/12 02:13:56;;;;;;;38.17;20.15;;;;;;;;;;4948011;28;20404;-73
2022/01/12 02:16:30;;;;;;;41.30;21.88;;;;;;;;;;4953166;28;20031;-73
2022/01/12 02:19:30;;;;;;;51.42;24.58;;;;;;;;;;4956168;28;20492;-73
2022/01/12 02:35:57;;;;;;;46.58;22.55;;;;;;;;;;4936248;28;20495;-72
2022/01/12 02:41:07;;;;;;;49.65;23.05;;;;;;;;;;4937039;28;20065;-72
2022/01/12 02:54:31;;;;;;;66.90;28.75;;;;;;;;;;4909122;29;20058;-72
2022/01/12 02:56:57;;;;;;;54.83;25.35;;;;;;;;;;4920435;29;20027;-72
2022/01/12 02:59:22;;;;;;;47.47;23.65;;;;;;;;;;4941737;28;20042;-71
2022/01/12 03:02:14;;;;;;;53.92;24.20;;;;;;;;;;4939891;29;20046;-72
2022/01/12 03:04:49;;;;;;;56.78;24.27;;;;;;;;;;4941053;29;20141;-71
2022/01/12 03:07:17;;;;;;;46.33;22.77;;;;;;;;;;4940222;28;20658;-73
2022/01/12 03:09:43;;;;;;;49.25;23.42;;;;;;;;;;4950054;28;20043;-73
2022/01/12 03:12:09;;;;;;;48.72;23.27;;;;;;;;;;4957693;28;20046;-72
2022/01/12 03:14:34;;;;;;;40.92;21.27;;;;;;;;;;4942623;28;20038;-74
2022/01/12 03:17:00;;;;;;;41.13;20.48;;;;;;;;;;4912900;29;20035;-72
2022/01/12 03:19:28;;;;;;;39.45;19.35;;;;;;;;;;4938175;28;20402;-72
2022/01/12 03:21:54;;;;;;;36.40;19.35;;;;;;;;;;4936207;28;20492;-73
2022/01/12 03:24:20;;;;;;;38.17;18.55;;;;;;;;;;4908250;29;20089;-72
2022/01/12 03:26:49;;;;;;;38.72;19.88;;;;;;;;;;4957809;28;20404;-73
2022/01/12 03:29:17;;;;;;;39.45;20.10;;;;;;;;;;4935648;28;20537;-72
2022/01/12 03:31:42;;;;;;;37.95;20.10;;;;;;;;;;4944460;28;20050;-72
2022/01/12 03:34:21;;;;;;;43.60;21.50;;;;;;;;;;4934952;28;20031;-72
2022/01/12 03:39:30;;;;;;;36.63;18.45;;;;;;;;;;4940350;29;20039;-71
2022/01/12 03:41:56;;;;;;;38.15;20.80;;;;;;;;;;4938510;28;20047;-71
2022/01/12 03:44:22;;;;;;;41.58;20.73;;;;;;;;;;4940761;28;20039;-72
2022/01/12 03:46:50;;;;;;;35.90;19.13;;;;;;;;;;4939531;29;20050;-72
2022/01/12 03:49:18;;;;;;;32.78;17.98;;;;;;;;;;4955781;28;20074;-72
2022/01/12 03:51:44;;;;;;;36.30;18.77;;;;;;;;;;4944376;28;20039;-72
2022/01/12 03:54:10;;;;;;;40.97;20.75;;;;;;;;;;4934822;28;20094;-72
2022/01/12 03:56:36;;;;;;;33.20;18.20;;;;;;;;;;4924010;29;20031;-72
2022/01/12 03:59:02;;;;;;;37.67;20.55;;;;;;;;;;4922532;29;20035;-72
2022/01/12 04:01:28;;;;;;;37.58;20.27;;;;;;;;;;4939411;29;20043;-72
2022/01/12 04:04:00;;;;;;;40.40;20.30;;;;;;;;;;4938441;28;20040;-71
2022/01/12 04:09:12;;;;;;;38.40;19.35;;;;;;;;;;4944707;29;20050;-72
2022/01/12 04:11:37;;;;;;;42.38;20.38;;;;;;;;;;4928912;29;20038;-72
2022/01/12 04:14:04;;;;;;;41.47;20.05;;;;;;;;;;4934971;28;20142;-72
2022/01/12 04:16:31;;;;;;;37.13;18.13;;;;;;;;;;4937065;28;20066;-73
2022/01/12 04:18:57;;;;;;;36.42;19.48;;;;;;;;;;4947803;28;20179;-71
2022/01/12 04:21:28;;;;;;;26.45;12.82;;;;;;;;;;4928376;29;20083;-72
2022/01/12 04:23:54;;;;;;;23.70;14.13;;;;;;;;;;4939472;29;20043;-72
2022/01/12 04:26:20;;;;;;;36.10;17.80;;;;;;;;;;4926571;28;20071;-72
2022/01/12 04:28:45;;;;;;;38.60;19.15;;;;;;;;;;4944603;28;20070;-71
2022/01/12 04:31:12;;;;;;;36.75;18.63;;;;;;;;;;4956768;28;20035;-73
2022/01/12 04:33:39;;;;;;;34.45;18.10;;;;;;;;;;4936612;28;20039;-72
2022/01/12 04:36:06;;;;;;;35.83;16.35;;;;;;;;;;4948700;28;20640;-71
2022/01/12 04:38:34;;;;;;;38.83;19.73;;;;;;;;;;4944443;28;20133;-72
2022/01/12 04:41:04;;;;;;;38.15;19.38;;;;;;;;;;4928930;29;20114;-71
2022/01/12 04:43:29;;;;;;;42.35;21.17;;;;;;;;;;4927957;29;20122;-72
2022/01/12 04:50:52;;;;;;;40.80;20.70;;;;;;;;;;4939690;29;20138;-73
2022/01/12 04:53:19;;;;;;;42.85;19.77;;;;;;;;;;4940572;29;20059;-73
2022/01/12 04:55:45;;;;;;;39.90;20.00;;;;;;;;;;4954498;28;20043;-71
2022/01/12 04:58:11;;;;;;;37.75;18.10;;;;;;;;;;4938583;28;20031;-71
2022/01/12 05:00:38;;;;;;;33.35;18.42;;;;;;;;;;4949108;28;20058;-70
2022/01/12 05:08:48;;;;;;;35.30;18.90;;;;;;;;;;4932073;28;20035;-71
2022/01/12 05:14:01;;;;;;;36.97;18.75;;;;;;;;;;4924043;29;20031;-70
2022/01/12 05:16:27;;;;;;;36.30;17.13;;;;;;;;;;4937172;29;20497;-70
2022/01/12 05:18:54;;;;;;;35.25;19.65;;;;;;;;;;4931052;29;20142;-72
2022/01/12 05:21:22;;;;;;;36.47;18.30;;;;;;;;;;4932428;28;20094;-72
2022/01/12 05:23:49;;;;;;;32.10;17.83;;;;;;;;;;4941187;29;20062;-72
2022/01/12 05:26:14;;;;;;;37.58;19.35;;;;;;;;;;4939474;29;20031;-71
2022/01/12 05:28:41;;;;;;;35.90;19.15;;;;;;;;;;4942685;29;20130;-72
2022/01/12 05:31:10;;;;;;;39.75;19.70;;;;;;;;;;4941886;28;20054;-72
2022/01/12 05:33:37;;;;;;;38.25;19.88;;;;;;;;;;4940840;28;20042;-73
2022/01/12 05:36:04;;;;;;;36.88;18.05;;;;;;;;;;4928248;29;20122;-72
2022/01/12 05:38:30;;;;;;;38.20;20.48;;;;;;;;;;4957476;28;20065;-74
2022/01/12 05:40:59;;;;;;;40.88;19.48;;;;;;;;;;4927685;29;20039;-71
2022/01/12 05:43:29;;;;;;;36.72;19.55;;;;;;;;;;4928167;28;20553;-71
2022/01/12 05:45:57;;;;;;;38.78;19.65;;;;;;;;;;4940814;29;20074;-72
2022/01/12 05:51:09;;;;;;;30.73;16.23;;;;;;;;;;4943246;29;20070;-74
2022/01/12 05:53:36;;;;;;;28.70;15.73;;;;;;;;;;4917943;28;20133;-70
2022/01/12 05:56:02;;;;;;;35.70;18.40;;;;;;;;;;4940844;28;20131;-71
2022/01/12 05:58:29;;;;;;;38.33;19.10;;;;;;;;;;4930619;28;20416;-72
2022/01/12 06:00:55;;;;;;;36.78;19.92;;;;;;;;;;4935964;28;20591;-73
2022/01/12 06:03:20;;;;;;;37.30;20.23;;;;;;;;;;4941960;28;20046;-69
2022/01/12 06:05:46;;;;;;;46.53;22.25;;;;;;;;;;4944054;28;20043;-70
2022/01/12 06:08:12;;;;;;;37.05;18.80;;;;;;;;;;4940827;29;20122;-71
2022/01/12 06:10:37;;;;;;;44.35;20.42;;;;;;;;;;4941853;29;20850;-69
2022/01/12 06:13:04;;;;;;;43.92;22.33;;;;;;;;;;4935547;29;20472;-71
2022/01/12 06:15:29;;;;;;;47.65;24.70;;;;;;;;;;4934805;28;20067;-72
2022/01/12 06:17:55;;;;;;;49.22;21.92;;;;;;;;;;4922019;29;20032;-71
2022/01/12 06:20:22;;;;;;;56.58;26.73;;;;;;;;;;4939096;29;20054;-72
2022/01/12 06:23:13;;;;;;;49.67;22.40;;;;;;;;;;4913438;29;20070;-71
2022/01/12 06:25:44;;;;;;;46.40;23.48;;;;;;;;;;4947163;28;20250;-72
2022/01/12 06:29:14;;;;;;;42.45;22.33;;;;;;;;;;4938796;28;20036;-70
2022/01/12 06:31:10;;;;;;;42.72;21.00;;;;;;;;;;4931456;29;20075;-71
2022/01/12 06:33:43;;;;;;;43.60;22.33;;;;;;;;;;4947679;28;20523;-71
2022/01/12 06:36:11;;;;;;;47.40;21.58;;;;;;;;;;4929834;28;20039;-71
2022/01/12 06:38:37;;;;;;;43.40;20.83;;;;;;;;;;4948730;28;20024;-71
2022/01/12 06:41:04;;;;;;;47.78;21.50;;;;;;;;;;4925959;29;20094;-72
2022/01/12 06:43:30;;;;;;;48.35;24.38;;;;;;;;;;4949641;28;20052;-72
2022/01/12 06:45:56;;;;;;;46.72;22.48;;;;;;;;;;4930290;29;20055;-72
2022/01/12 06:48:22;;;;;;;49.88;24.35;;;;;;;;;;4949532;28;20040;-71
2022/01/12 06:50:47;;;;;;;50.78;24.55;;;;;;;;;;4931305;28;21063;-73
2022/01/12 06:53:12;;;;;;;42.90;20.33;;;;;;;;;;4935390;29;20063;-72
2022/01/12 06:55:38;;;;;;;39.58;20.55;;;;;;;;;;4931708;29;20093;-72
2022/01/12 06:58:04;;;;;;;39.15;20.60;;;;;;;;;;4929506;28;20480;-73
2022/01/12 07:00:30;;;;;;;45.38;20.67;;;;;;;;;;4933871;28;20054;-73
2022/01/12 07:02:56;;;;;;;40.78;19.33;;;;;;;;;;4927093;29;20038;-72
2022/01/12 07:05:30;;;;;;;40.67;20.33;;;;;;;;;;4933363;29;20114;-73
2022/01/12 07:07:55;;;;;;;41.80;20.10;;;;;;;;;;4931618;29;20039;-71
2022/01/12 07:10:30;;;;;;;35.83;18.00;;;;;;;;;;4949712;28;20050;-73
2022/01/12 07:13:02;;;;;;;40.15;18.95;;;;;;;;;;4928975;28;20073;-74
2022/01/12 07:15:27;;;;;;;37.35;19.25;;;;;;;;;;4932684;29;20101;-74
2022/01/12 07:17:53;;;;;;;40.42;19.10;;;;;;;;;;4957320;28;20130;-74
2022/01/12 07:20:18;;;;;;;32.13;17.50;;;;;;;;;;4926015;28;20039;-73
2022/01/12 07:22:44;;;;;;;36.95;16.73;;;;;;;;;;4929603;28;20090;-74
2022/01/12 07:25:09;;;;;;;33.90;17.15;;;;;;;;;;4923951;29;20044;-74
2022/01/12 07:27:35;;;;;;;29.98;15.77;;;;;;;;;;4937214;29;20043;-75
2022/01/12 07:30:01;;;;;;;19.92;12.57;;;;;;;;;;4937035;29;20082;-74
2022/01/12 07:32:27;;;;;;;27.05;13.85;;;;;;;;;;4921367;28;20039;-75
2022/01/12 07:34:53;;;;;;;23.50;13.23;;;;;;;;;;4936106;28;20969;-74
2022/01/12 07:37:18;;;;;;;24.77;14.70;;;;;;;;;;4929331;28;20066;-73
2022/01/12 07:39:44;;;;;;;30.65;16.33;;;;;;;;;;4935300;29;20163;-72
2022/01/12 07:42:11;;;;;;;35.10;17.65;;;;;;;;;;4935632;28;20039;-73
2022/01/12 07:44:39;;;;;;;36.17;18.80;;;;;;;;;;4928139;28;20046;-71
2022/01/12 07:47:05;;;;;;;41.35;20.00;;;;;;;;;;4933217;29;20094;-74
2022/01/12 07:49:31;;;;;;;44.35;21.90;;;;;;;;;;4942118;29;20412;-72
2022/01/12 07:51:57;;;;;;;49.13;23.00;;;;;;;;;;4946515;28;20385;-72
2022/01/12 07:54:23;;;;;;;47.47;22.83;;;;;;;;;;4942754;28;20043;-72
2022/01/12 07:56:48;;;;;;;38.88;19.17;;;;;;;;;;4940127;28;20039;-73
2022/01/12 07:59:14;;;;;;;43.22;18.52;;;;;;;;;;4939717;28;20536;-73
2022/01/12 08:01:39;;;;;;;44.30;21.73;;;;;;;;;;4933444;29;20087;-74
2022/01/12 08:04:05;;;;;;;44.00;18.58;;;;;;;;;;4940996;29;20555;-74
2022/01/12 08:06:30;;;;;;;44.05;21.13;;;;;;;;;;4957418;28;20587;-73
2022/01/12 08:08:56;;;;;;;45.88;21.73;;;;;;;;;;4932590;28;20039;-72
2022/01/12 08:11:22;;;;;;;49.17;24.35;;;;;;;;;;4960287;28;20702;-73
2022/01/12 08:13:49;;;;;;;38.05;18.65;;;;;;;;;;4933709;28;20035;-73
2022/01/12 08:16:14;;;;;;;40.05;19.92;;;;;;;;;;4945734;28;20455;-69
2022/01/12 08:18:40;;;;;;;42.17;19.95;;;;;;;;;;4945139;28;20031;-72
2022/01/12 08:21:06;;;;;;;46.15;22.75;;;;;;;;;;4939913;28;20110;-74
2022/01/12 08:23:33;;;;;;;45.80;22.10;;;;;;;;;;4930676;28;20067;-72
2022/01/12 08:25:58;;;;;;;49.33;25.35;;;;;;;;;;4931398;28;20175;-74
2022/01/12 08:28:24;;;;;;;48.70;21.65;;;;;;;;;;4935120;28;20081;-73
2022/01/12 08:30:50;;;;;;;52.50;24.65;;;;;;;;;;4942188;28;20035;-73
2022/01/12 08:33:16;;;;;;;42.25;19.30;;;;;;;;;;4939508;28;20027;-73
2022/01/12 08:35:42;;;;;;;41.70;21.45;;;;;;;;;;4938726;28;20063;-73
2022/01/12 08:38:07;;;;;;;46.30;21.42;;;;;;;;;;4944534;28;20067;-74
2022/01/12 08:40:37;;;;;;;46.20;20.80;;;;;;;;;;4936174;28;20057;-71
2022/01/12 08:43:03;;;;;;;36.72;18.83;;;;;;;;;;4934251;28;20043;-72
2022/01/12 08:45:29;;;;;;;46.35;22.60;;;;;;;;;;4929695;28;20047;-73
2022/01/12 08:47:54;;;;;;;50.33;24.88;;;;;;;;;;4940229;28;20050;-72
2022/01/12 08:50:20;;;;;;;50.15;24.00;;;;;;;;;;4933557;29;20087;-74
2022/01/12 08:52:47;;;;;;;43.70;20.92;;;;;;;;;;4941147;28;20425;-73
2022/01/12 08:55:17;;;;;;;45.05;22.30;;;;;;;;;;4937450;29;20041;-73
2022/01/12 08:57:42;;;;;;;44.15;21.73;;;;;;;;;;4935862;28;20094;-72
2022/01/12 09:00:09;;;;;;;31.95;14.80;;;;;;;;;;4944771;28;20520;-72
2022/01/12 09:02:35;;;;;;;35.25;18.35;;;;;;;;;;4936239;29;20488;-72
2022/01/12 09:05:00;;;;;;;33.75;18.13;;;;;;;;;;4934254;29;20045;-73
2022/01/12 09:07:26;;;;;;;32.00;15.93;;;;;;;;;;4932927;28;20234;-73
2022/01/12 09:09:52;;;;;;;31.30;16.10;;;;;;;;;;4934075;28;20039;-73
2022/01/12 09:12:18;;;;;;;25.85;14.32;;;;;;;;;;4935324;29;20481;-74
2022/01/12 09:14:44;;;;;;;28.30;14.77;;;;;;;;;;4938118;29;20047;-74
2022/01/12 09:17:18;;;;;;;32.42;14.95;;;;;;;;;;4939663;28;20031;-71
2022/01/12 09:19:45;;;;;;;29.27;14.90;;;;;;;;;;4937302;28;20512;-73
2022/01/12 09:22:12;;;;;;;29.80;14.40;;;;;;;;;;4943313;28;21156;-72
2022/01/12 09:24:38;;;;;;;22.40;12.60;;;;;;;;;;4940791;29;20035;-73
2022/01/12 09:27:04;;;;;;;27.40;13.43;;;;;;;;;;4935454;29;20050;-73
2022/01/12 09:29:30;;;;;;;25.08;14.35;;;;;;;;;;4939654;28;20035;-74
2022/01/12 09:31:55;;;;;;;26.98;12.85;;;;;;;;;;4936093;28;20050;-75
2022/01/12 09:34:21;;;;;;;20.92;13.18;;;;;;;;;;4938540;29;20138;-74
2022/01/12 09:36:46;;;;;;;24.27;12.70;;;;;;;;;;4931745;29;20114;-72
2022/01/12 09:39:13;;;;;;;24.20;13.40;;;;;;;;;;4948699;28;20635;-74
2022/01/12 09:41:38;;;;;;;21.52;11.88;;;;;;;;;;4934858;28;20094;-73
2022/01/12 09:44:04;;;;;;;21.60;11.02;;;;;;;;;;4936673;28;20043;-73
2022/01/12 09:46:30;;;;;;;14.30;7.95;;;;;;;;;;4942102;28;20046;-72
2022/01/12 09:48:57;;;;;;;11.80;7.68;;;;;;;;;;4938167;28;20039;-72
2022/01/12 09:51:24;;;;;;;12.48;7.55;;;;;;;;;;4954271;28;20043;-74
2022/01/12 09:53:50;;;;;;;13.90;8.07;;;;;;;;;;4930315;28;20047;-74
2022/01/12 09:56:18;;;;;;;16.38;9.38;;;;;;;;;;4950919;28;20094;-74
2022/01/12 09:58:51;;;;;;;13.90;8.73;;;;;;;;;;4951582;28;20035;-74
2022/01/12 10:01:39;;;;;;;13.38;8.77;;;;;;;;;;4941051;28;20035;-74
2022/01/12 10:04:17;;;;;;;14.70;8.85;;;;;;;;;;4947048;28;20051;-74
2022/01/12 10:06:49;;;;;;;11.95;7.95;;;;;;;;;;4934049;28;20787;-75
2022/01/12 10:09:16;;;;;;;12.90;7.55;;;;;;;;;;4941284;29;20103;-71
2022/01/12 10:12:06;;;;;;;11.30;7.70;;;;;;;;;;4951946;28;20126;-71
2022/01/12 10:14:52;;;;;;;13.03;8.33;;;;;;;;;;4935509;28;20030;-70
2022/01/12 10:17:32;;;;;;;13.18;7.18;;;;;;;;;;4938406;28;20282;-72
2022/01/12 10:20:12;;;;;;;12.45;7.47;;;;;;;;;;4939966;29;20031;-73
2022/01/12 10:22:59;;;;;;;9.60;7.15;;;;;;;;;;5078832;27;20332;-70
2022/01/12 10:25:28;;;;;;;12.95;6.90;;;;;;;;;;5077757;28;20032;-70
2022/01/12 10:27:54;;;;;;;10.40;6.78;;;;;;;;;;5077445;28;20055;-72
2022/01/12 10:30:26;;;;;;;8.38;6.50;;;;;;;;;;5078335;28;20039;-73
2022/01/12 10:33:06;;;;;;;9.20;6.95;;;;;;;;;;5078465;28;20078;-73
2022/01/12 10:35:34;;;;;;;10.65;7.22;;;;;;;;;;5075800;28;20079;-73
2022/01/12 10:38:06;;;;;;;10.30;7.13;;;;;;;;;;5078079;28;20039;-72
2022/01/12 10:40:49;;;;;;;11.82;7.90;;;;;;;;;;5077566;28;20489;-72
2022/01/12 10:43:44;;;;;;;13.50;8.30;;;;;;;;;;5076472;28;20064;-71
2022/01/12 10:46:17;;;;;;;13.43;7.60;;;;;;;;;;5075974;28;20051;-72
2022/01/12 10:48:56;;;;;;;13.43;9.10;;;;;;;;;;5077781;28;20024;-71
2022/01/12 10:51:28;;;;;;;9.63;6.80;;;;;;;;;;5077905;28;20649;-72
2022/01/12 10:54:00;;;;;;;8.07;5.32;;;;;;;;;;5076406;28;20036;-77
2022/01/12 10:56:25;;;;;;;8.70;5.85;;;;;;;;;;5077630;28;20036;-75
2022/01/12 10:58:53;;;;;;;7.85;5.10;;;;;;;;;;5077308;28;20048;-75
2022/01/12 11:01:21;;;;;;;8.30;5.18;;;;;;;;;;5078951;28;20036;-74
2022/01/12 11:03:47;;;;;;;9.68;6.28;;;;;;;;;;5077885;28;20036;-73
2022/01/12 11:06:14;;;;;;;7.72;5.90;;;;;;;;;;5077834;28;20071;-73
2022/01/12 11:08:41;;;;;;;8.02;5.88;;;;;;;;;;5076348;28;20058;-72
2022/01/12 11:11:07;;;;;;;8.60;5.70;;;;;;;;;;5077511;28;20047;-74
2022/01/12 11:13:34;;;;;;;6.80;5.38;;;;;;;;;;5077457;28;20036;-71
2022/01/12 11:16:00;;;;;;;9.73;5.15;;;;;;;;;;5075879;28;20070;-72
2022/01/12 11:18:31;;;;;;;8.55;4.70;;;;;;;;;;5077412;28;20082;-72
2022/01/12 11:21:30;;;;;;;8.13;5.35;;;;;;;;;;5074007;28;20481;-74
2022/01/12 11:23:57;;;;;;;7.40;5.40;;;;;;;;;;5054193;28;20055;-74
2022/01/12 11:26:26;;;;;;;9.30;4.93;;;;;;;;;;5075710;28;20054;-70
2022/01/12 11:28:53;;;;;;;6.18;4.40;;;;;;;;;;5076906;28;20048;-71
2022/01/12 11:31:30;;;;;;;6.32;4.57;;;;;;;;;;5075779;28;20039;-72
2022/01/12 11:33:56;;;;;;;6.88;4.65;;;;;;;;;;5064973;28;20090;-73
2022/01/12 11:36:25;;;;;;;8.60;5.22;;;;;;;;;;5061771;28;20032;-71
2022/01/12 11:39:20;;;;;;;7.00;5.15;;;;;;;;;;5063210;28;20071;-71
2022/01/12 11:41:49;;;;;;;7.72;5.35;;;;;;;;;;5061720;28;20047;-73
2022/01/12 11:44:18;;;;;;;8.70;5.00;;;;;;;;;;5061711;28;20093;-73
2022/01/12 11:46:50;;;;;;;9.25;5.68;;;;;;;;;;5062614;28;20554;-71
2022/01/12 11:49:44;;;;;;;9.07;5.50;;;;;;;;;;5063381;28;20630;-72
2022/01/12 11:52:18;;;;;;;7.72;5.25;;;;;;;;;;5062469;28;20067;-71
2022/01/12 11:54:47;;;;;;;7.88;5.50;;;;;;;;;;5062916;28;20032;-72
2022/01/12 11:57:18;;;;;;;7.47;5.28;;;;;;;;;;5062075;28;20032;-72
2022/01/12 11:59:49;;;;;;;10.77;6.15;;;;;;;;;;5062639;28;20407;-73
2022/01/12 12:02:16;;;;;;;8.60;5.70;;;;;;;;;;5061543;28;20388;-72
2022/01/12 12:05:12;;;;;;;8.52;5.63;;;;;;;;;;5061713;28;20040;-72
2022/01/12 12:07:48;;;;;;;8.38;5.57;;;;;;;;;;5078145;28;20058;-71
2022/01/12 12:10:17;;;;;;;12.80;6.88;;;;;;;;;;5062532;28;20028;-70
2022/01/12 12:12:42;;;;;;;9.10;6.60;;;;;;;;;;5061220;28;20040;-71
2022/01/12 12:15:10;;;;;;;13.88;8.45;;;;;;;;;;5060480;28;20036;-70
2022/01/12 12:17:38;;;;;;;12.90;8.32;;;;;;;;;;5062702;28;20074;-73
2022/01/12 12:20:06;;;;;;;13.55;7.53;;;;;;;;;;5062999;28;20081;-73
2022/01/12 12:22:34;;;;;;;15.27;8.13;;;;;;;;;;5061001;28;20119;-71
2022/01/12 12:25:00;;;;;;;14.35;8.70;;;;;;;;;;5060155;28;20025;-73
2022/01/12 12:27:27;;;;;;;11.00;6.25;;;;;;;;;;5060724;28;20074;-72
2022/01/12 12:29:53;;;;;;;10.93;7.78;;;;;;;;;;5062210;28;20086;-72
2022/01/12 12:32:31;;;;;;;11.18;6.63;;;;;;;;;;5061900;28;20025;-72
2022/01/12 12:35:04;;;;;;;16.75;8.15;;;;;;;;;;5062429;28;20060;-72
2022/01/12 12:37:38;;;;;;;12.60;8.02;;;;;;;;;;5059551;28;20055;-73
2022/01/12 12:40:35;;;;;;;12.70;7.22;;;;;;;;;;5060313;28;20056;-72
2022/01/12 12:43:22;;;;;;;13.13;7.47;;;;;;;;;;5062107;28;20055;-72
2022/01/12 12:45:56;;;;;;;12.68;7.47;;;;;;;;;;5046060;28;20179;-74
2022/01/12 12:48:24;;;;;;;10.70;7.00;;;;;;;;;;5061015;28;20037;-71
2022/01/12 12:51:08;;;;;;;12.57;7.40;;;;;;;;;;5062222;28;20036;-73
2022/01/12 12:53:36;;;;;;;17.58;8.40;;;;;;;;;;5061808;28;20020;-72
2022/01/12 12:56:04;;;;;;;19.65;8.43;;;;;;;;;;5062029;28;20098;-71
2022/01/12 12:58:30;;;;;;;16.83;7.55;;;;;;;;;;5060827;28;20088;-70
2022/01/12 13:01:06;;;;;;;15.80;8.52;;;;;;;;;;5061844;28;20037;-73
2022/01/12 13:03:32;;;;;;;13.50;8.35;;;;;;;;;;5059881;28;20036;-71
2022/01/12 13:05:57;;;;;;;21.02;10.95;;;;;;;;;;5056483;28;20586;-73
2022/01/12 13:08:23;;;;;;;25.30;10.82;;;;;;;;;;5058903;28;20039;-71
2022/01/12 13:10:48;;;;;;;15.52;7.97;;;;;;;;;;5061106;28;20274;-73
2022/01/12 13:13:14;;;;;;;27.10;14.52;;;;;;;;;;5061872;28;20144;-72
2022/01/12 13:15:41;;;;;;;27.52;14.77;;;;;;;;;;5061116;28;20036;-71
2022/01/12 13:18:15;;;;;;;25.38;15.02;;;;;;;;;;5061573;28;20032;-73
2022/01/12 13:23:44;;;;;;;28.70;14.63;;;;;;;;;;5076373;28;20504;-71
2022/01/12 13:26:15;;;;;;;23.95;13.43;;;;;;;;;;5060757;28;20044;-74
2022/01/12 13:28:46;;;;;;;26.02;13.45;;;;;;;;;;5047204;28;20050;-71
2022/01/12 13:31:14;;;;;;;24.73;13.23;;;;;;;;;;5060922;28;20479;-72
2022/01/12 13:33:42;;;;;;;29.02;15.43;;;;;;;;;;5060655;28;20917;-72
2022/01/12 13:36:20;;;;;;;25.52;13.65;;;;;;;;;;5058832;28;20036;-74
2022/01/12 13:38:48;;;;;;;23.88;13.23;;;;;;;;;;5045649;28;20036;-72
2022/01/12 13:41:23;;;;;;;30.60;13.55;;;;;;;;;;5059877;28;20029;-73
2022/01/12 13:43:55;;;;;;;27.13;13.90;;;;;;;;;;5061876;28;20048;-74
2022/01/12 13:46:29;;;;;;;26.53;14.53;;;;;;;;;;5059548;28;21031;-75
2022/01/12 13:51:37;;;;;;;28.42;13.35;;;;;;;;;;5060512;28;20396;-73
2022/01/12 13:54:13;;;;;;;32.20;18.35;;;;;;;;;;5060410;28;20032;-75
2022/01/12 13:56:45;;;;;;;28.17;14.98;;;;;;;;;;5060851;28;20040;-75
2022/01/12 13:59:12;;;;;;;;;;;;;;;;;;5060833;28;20036;-76
2022/01/12 14:01:39;;;;;;;39.30;19.38;;;;;;;;;;5069295;28;20058;-77
2022/01/12 14:04:14;;;;;;;33.80;17.60;;;;;;;;;;5059342;28;20032;-76
2022/01/12 14:06:46;;;;;;;30.48;14.85;;;;;;;;;;5042757;28;20032;-75
2022/01/12 14:09:38;;;;;;;31.90;16.63;;;;;;;;;;5059017;28;20036;-72
2022/01/12 14:12:13;;;;;;;24.85;13.77;;;;;;;;;;5059127;28;20090;-72
2022/01/12 14:14:50;;;;;;;33.80;16.98;;;;;;;;;;5060056;28;20029;-74
2022/01/12 14:17:36;;;;;;;24.65;12.10;;;;;;;;;;5059159;28;20060;-74
2022/01/12 14:20:23;;;;;;;40.25;20.10;;;;;;;;;;5058814;28;20143;-75
2022/01/12 14:22:59;;;;;;;42.05;18.10;;;;;;;;;;5059612;28;20040;-75
2022/01/12 14:25:41;;;;;;;31.20;15.82;;;;;;;;;;5057558;28;20033;-74
2022/01/12 14:28:31;;;;;;;32.28;15.70;;;;;;;;;;5059269;28;20119;-74
2022/01/12 14:30:57;;;;;;;37.42;18.83;;;;;;;;;;5060326;28;20045;-75
2022/01/12 14:33:23;;;;;;;38.40;19.35;;;;;;;;;;5060803;28;20025;-77
2022/01/12 14:35:49;;;;;;;34.25;16.60;;;;;;;;;;5058150;28;20033;-74
2022/01/12 14:38:15;;;;;;;36.58;17.33;;;;;;;;;;5073455;28;20033;-74
2022/01/12 14:40:42;;;;;;;31.50;16.48;;;;;;;;;;5060219;28;20485;-75
2022/01/12 14:43:08;;;;;;;39.75;19.05;;;;;;;;;;5059760;28;20131;-74
2022/01/12 14:45:38;;;;;;;30.15;16.90;;;;;;;;;;5058704;28;20232;-74
2022/01/12 14:48:07;;;;;;;42.50;19.52;;;;;;;;;;5059784;28;20036;-74
2022/01/12 14:50:33;;;;;;;40.95;19.38;;;;;;;;;;5059019;28;20037;-76
2022/01/12 14:53:00;;;;;;;43.92;17.13;;;;;;;;;;5059105;28;20060;-76
2022/01/12 14:55:28;;;;;;;35.63;15.90;;;;;;;;;;5059872;28;20036;-73
2022/01/12 14:57:54;;;;;;;37.33;16.52;;;;;;;;;;5059150;28;20032;-73
2022/01/12 15:00:24;;;;;;;38.75;19.60;;;;;;;;;;5059151;28;20025;-75
2022/01/12 15:03:00;;;;;;;42.50;18.15;;;;;;;;;;5075358;28;20036;-73
2022/01/12 15:05:28;;;;;;;35.38;15.75;;;;;;;;;;5060518;28;20070;-76
2022/01/12 15:07:55;;;;;;;32.30;15.70;;;;;;;;;;5059113;28;20801;-75
2022/01/12 15:10:22;;;;;;;44.75;19.83;;;;;;;;;;5061329;28;20123;-75
2022/01/12 15:12:52;;;;;;;40.78;20.30;;;;;;;;;;5063607;28;20036;-75
2022/01/12 15:15:19;;;;;;;38.75;16.75;;;;;;;;;;5063227;28;20268;-75
2022/01/12 15:17:45;;;;;;;39.20;17.15;;;;;;;;;;5062343;28;20036;-73
2022/01/12 15:20:13;;;;;;;38.67;18.00;;;;;;;;;;5061710;28;20040;-73
2022/01/12 15:22:43;;;;;;;36.42;15.77;;;;;;;;;;5063292;28;20043;-72
2022/01/12 15:25:11;;;;;;;50.15;22.17;;;;;;;;;;5063609;28;20531;-73
2022/01/12 15:27:37;;;;;;;35.75;17.83;;;;;;;;;;5063041;28;20044;-74
2022/01/12 15:30:05;;;;;;;34.92;17.05;;;;;;;;;;5062354;28;20047;-75
2022/01/12 15:32:30;;;;;;;39.35;17.58;;;;;;;;;;5060833;28;20107;-74
2022/01/12 15:34:57;;;;;;;42.17;18.58;;;;;;;;;;5045305;28;20119;-76
2022/01/12 15:37:23;;;;;;;41.63;18.60;;;;;;;;;;5062459;28;20078;-75
2022/01/12 15:39:51;;;;;;;39.15;19.02;;;;;;;;;;5064035;28;20810;-77
2022/01/12 15:42:17;;;;;;;39.53;18.30;;;;;;;;;;5061670;28;20032;-78
2022/01/12 15:44:42;;;;;;;34.78;17.95;;;;;;;;;;5063852;28;20050;-78
2022/01/12 15:47:10;;;;;;;35.35;16.15;;;;;;;;;;5063323;28;20040;-76
2022/01/12 15:49:36;;;;;;;38.83;18.58;;;;;;;;;;5073183;28;20054;-74
2022/01/12 15:52:02;;;;;;;35.40;17.20;;;;;;;;;;5063659;28;20028;-77
2022/01/12 15:54:28;;;;;;;38.13;17.08;;;;;;;;;;5060651;28;20043;-77